sensor_id;sensor_type;location;lat;lon;timestamp;P1;durP1;ratioP1;P2;durP2;ratioP2
64791;SDS011;51226;47.504;19.074;2023-03-31T00:03:02;16.73;;;12.52;;
64791;SDS011;51226;47.504;19.074;2023-03-31T00:06:12;12.55;;;9.45;;
64791;SDS011;51226;47.504;19.074;2023-03-31T00:09:20;11.00;;;8.38;;
64791;SDS011;51226;47.504;19.074;2023-03-31T00:12:23;9.57;;;8.18;;
64791;SDS011;51226;47.504;19.074;2023-03-31T00:15:26;8.48;;;7.65;;
64791;SDS011;51226;47.504;19.074;2023-03-31T00:18:30;9.15;;;7.80;;
64791;SDS011;51226;47.504;19.074;2023-03-31T00:21:33;9.18;;;8.18;;
64791;SDS011;51226;47.504;19.074;2023-03-31T00:24:35;11.52;;;8.13;;
64791;SDS011;51226;47.504;19.074;2023-03-31T00:27:42;9.27;;;7.32;;
64791;SDS011;51226;47.504;19.074;2023-03-31T00:30:45;10.30;;;7.87;;
64791;SDS011;51226;47.504;19.074;2023-03-31T00:33:48;10.23;;;7.90;;
64791;SDS011;51226;47.504;19.074;2023-03-31T00:36:52;9.88;;;8.10;;
64791;SDS011;51226;47.504;19.074;2023-03-31T00:39:58;9.80;;;8.02;;
64791;SDS011;51226;47.504;19.074;2023-03-31T00:43:01;7.75;;;6.80;;
64791;SDS011;51226;47.504;19.074;2023-03-31T00:46:10;7.70;;;6.62;;
64791;SDS011;51226;47.504;19.074;2023-03-31T00:49:40;7.28;;;6.37;;
64791;SDS011;51226;47.504;19.074;2023-03-31T00:52:50;9.50;;;6.60;;
64791;SDS011;51226;47.504;19.074;2023-03-31T00:56:00;11.68;;;6.45;;
64791;SDS011;51226;47.504;19.074;2023-03-31T00:59:07;7.45;;;6.15;;
64791;SDS011;51226;47.504;19.074;2023-03-31T01:02:13;7.25;;;5.07;;
64791;SDS011;51226;47.504;19.074;2023-03-31T01:05:19;8.77;;;5.60;;
64791;SDS011;51226;47.504;19.074;2023-03-31T01:08:51;8.15;;;5.65;;
64791;SDS011;51226;47.504;19.074;2023-03-31T01:11:55;8.55;;;5.68;;
64791;SDS011;51226;47.504;19.074;2023-03-31T01:14:58;7.15;;;5.35;;
64791;SDS011;51226;47.504;19.074;2023-03-31T01:18:03;7.03;;;5.45;;
64791;SDS011;51226;47.504;19.074;2023-03-31T01:28:20;7.25;;;5.57;;
64791;SDS011;51226;47.504;19.074;2023-03-31T01:38:30;6.40;;;5.57;;
64791;SDS011;51226;47.504;19.074;2023-03-31T01:44:53;7.55;;;5.50;;
64791;SDS011;51226;47.504;19.074;2023-03-31T01:48:14;6.55;;;5.28;;
64791;SDS011;51226;47.504;19.074;2023-03-31T01:51:28;7.60;;;5.57;;
64791;SDS011;51226;47.504;19.074;2023-03-31T02:00:33;7.82;;;5.40;;
64791;SDS011;51226;47.504;19.074;2023-03-31T02:03:45;6.07;;;5.47;;
64791;SDS011;51226;47.504;19.074;2023-03-31T02:07:01;7.75;;;5.47;;
64791;SDS011;51226;47.504;19.074;2023-03-31T02:10:10;7.30;;;5.40;;
64791;SDS011;51226;47.504;19.074;2023-03-31T02:13:14;7.72;;;5.20;;
64791;SDS011;51226;47.504;19.074;2023-03-31T02:16:21;6.90;;;5.28;;
64791;SDS011;51226;47.504;19.074;2023-03-31T02:19:31;6.55;;;5.57;;
64791;SDS011;51226;47.504;19.074;2023-03-31T02:22:42;5.93;;;5.35;;
64791;SDS011;51226;47.504;19.074;2023-03-31T02:29:17;6.95;;;5.20;;
64791;SDS011;51226;47.504;19.074;2023-03-31T02:35:27;5.28;;;4.78;;
64791;SDS011;51226;47.504;19.074;2023-03-31T02:38:31;5.55;;;4.57;;
64791;SDS011;51226;47.504;19.074;2023-03-31T02:41:41;5.68;;;5.15;;
64791;SDS011;51226;47.504;19.074;2023-03-31T02:44:44;6.93;;;4.62;;
64791;SDS011;51226;47.504;19.074;2023-03-31T02:47:48;6.18;;;4.78;;
64791;SDS011;51226;47.504;19.074;2023-03-31T02:54:29;4.72;;;4.32;;
64791;SDS011;51226;47.504;19.074;2023-03-31T02:57:41;5.75;;;5.00;;
64791;SDS011;51226;47.504;19.074;2023-03-31T03:01:38;6.72;;;5.10;;
64791;SDS011;51226;47.504;19.074;2023-03-31T03:17:43;6.45;;;4.97;;
64791;SDS011;51226;47.504;19.074;2023-03-31T03:20:49;6.20;;;4.87;;
64791;SDS011;51226;47.504;19.074;2023-03-31T03:23:52;6.28;;;5.53;;
64791;SDS011;51226;47.504;19.074;2023-03-31T03:26:55;7.80;;;5.43;;
64791;SDS011;51226;47.504;19.074;2023-03-31T03:29:57;4.53;;;4.05;;
64791;SDS011;51226;47.504;19.074;2023-03-31T03:33:01;6.15;;;4.80;;
64791;SDS011;51226;47.504;19.074;2023-03-31T03:39:07;6.50;;;5.25;;
64791;SDS011;51226;47.504;19.074;2023-03-31T03:42:10;6.18;;;4.37;;
64791;SDS011;51226;47.504;19.074;2023-03-31T03:48:16;4.03;;;3.20;;
64791;SDS011;51226;47.504;19.074;2023-03-31T03:51:20;4.87;;;4.12;;
64791;SDS011;51226;47.504;19.074;2023-03-31T03:54:23;4.93;;;3.80;;
64791;SDS011;51226;47.504;19.074;2023-03-31T03:57:26;4.90;;;3.90;;
64791;SDS011;51226;47.504;19.074;2023-03-31T04:00:29;7.80;;;5.03;;
64791;SDS011;51226;47.504;19.074;2023-03-31T04:03:33;5.05;;;3.87;;
64791;SDS011;51226;47.504;19.074;2023-03-31T04:06:35;4.53;;;3.97;;
64791;SDS011;51226;47.504;19.074;2023-03-31T04:09:38;4.93;;;3.62;;
64791;SDS011;51226;47.504;19.074;2023-03-31T04:12:41;6.75;;;4.22;;
64791;SDS011;51226;47.504;19.074;2023-03-31T04:15:44;5.00;;;3.92;;
64791;SDS011;51226;47.504;19.074;2023-03-31T04:18:47;5.47;;;4.28;;
64791;SDS011;51226;47.504;19.074;2023-03-31T04:21:51;5.18;;;4.25;;
64791;SDS011;51226;47.504;19.074;2023-03-31T04:25:01;5.62;;;4.25;;
64791;SDS011;51226;47.504;19.074;2023-03-31T04:28:05;6.28;;;4.20;;
64791;SDS011;51226;47.504;19.074;2023-03-31T04:31:08;6.18;;;4.95;;
64791;SDS011;51226;47.504;19.074;2023-03-31T04:34:13;6.72;;;4.53;;
64791;SDS011;51226;47.504;19.074;2023-03-31T04:37:16;6.10;;;4.47;;
64791;SDS011;51226;47.504;19.074;2023-03-31T04:40:19;6.25;;;5.32;;
64791;SDS011;51226;47.504;19.074;2023-03-31T04:43:22;5.55;;;5.03;;
64791;SDS011;51226;47.504;19.074;2023-03-31T04:49:29;7.32;;;4.95;;
64791;SDS011;51226;47.504;19.074;2023-03-31T04:52:35;5.85;;;5.25;;
64791;SDS011;51226;47.504;19.074;2023-03-31T04:58:41;7.68;;;5.78;;
64791;SDS011;51226;47.504;19.074;2023-03-31T05:01:45;6.90;;;5.65;;
64791;SDS011;51226;47.504;19.074;2023-03-31T05:04:49;7.07;;;5.28;;
64791;SDS011;51226;47.504;19.074;2023-03-31T05:07:52;5.90;;;4.97;;
64791;SDS011;51226;47.504;19.074;2023-03-31T05:10:55;7.78;;;5.03;;
64791;SDS011;51226;47.504;19.074;2023-03-31T05:13:58;6.53;;;5.70;;
64791;SDS011;51226;47.504;19.074;2023-03-31T05:17:02;7.10;;;6.28;;
64791;SDS011;51226;47.504;19.074;2023-03-31T05:20:05;6.80;;;5.82;;
64791;SDS011;51226;47.504;19.074;2023-03-31T05:23:09;6.25;;;5.53;;
64791;SDS011;51226;47.504;19.074;2023-03-31T05:26:12;6.97;;;6.03;;
64791;SDS011;51226;47.504;19.074;2023-03-31T05:29:16;8.25;;;6.45;;
64791;SDS011;51226;47.504;19.074;2023-03-31T05:32:18;9.10;;;6.57;;
64791;SDS011;51226;47.504;19.074;2023-03-31T05:38:25;7.18;;;5.20;;
64791;SDS011;51226;47.504;19.074;2023-03-31T05:41:31;5.97;;;5.32;;
64791;SDS011;51226;47.504;19.074;2023-03-31T05:44:33;8.13;;;5.25;;
64791;SDS011;51226;47.504;19.074;2023-03-31T05:47:36;11.48;;;5.97;;
64791;SDS011;51226;47.504;19.074;2023-03-31T05:50:39;9.70;;;5.32;;
64791;SDS011;51226;47.504;19.074;2023-03-31T05:53:44;11.48;;;5.78;;
64791;SDS011;51226;47.504;19.074;2023-03-31T05:56:47;8.25;;;5.90;;
64791;SDS011;51226;47.504;19.074;2023-03-31T06:02:53;11.95;;;6.43;;
64791;SDS011;51226;47.504;19.074;2023-03-31T06:08:58;7.25;;;5.57;;
64791;SDS011;51226;47.504;19.074;2023-03-31T06:12:02;20.45;;;7.22;;
64791;SDS011;51226;47.504;19.074;2023-03-31T06:18:08;10.63;;;5.60;;
64791;SDS011;51226;47.504;19.074;2023-03-31T06:21:16;7.47;;;4.95;;
64791;SDS011;51226;47.504;19.074;2023-03-31T06:24:20;5.75;;;4.82;;
64791;SDS011;51226;47.504;19.074;2023-03-31T06:27:23;7.50;;;5.30;;
64791;SDS011;51226;47.504;19.074;2023-03-31T06:33:28;8.63;;;4.65;;
64791;SDS011;51226;47.504;19.074;2023-03-31T06:36:32;6.22;;;4.45;;
64791;SDS011;51226;47.504;19.074;2023-03-31T06:39:34;5.85;;;4.78;;
64791;SDS011;51226;47.504;19.074;2023-03-31T06:42:37;6.97;;;4.93;;
64791;SDS011;51226;47.504;19.074;2023-03-31T06:45:40;6.12;;;4.93;;
64791;SDS011;51226;47.504;19.074;2023-03-31T06:48:43;7.00;;;5.65;;
64791;SDS011;51226;47.504;19.074;2023-03-31T06:51:46;6.80;;;4.10;;
64791;SDS011;51226;47.504;19.074;2023-03-31T06:57:51;7.43;;;4.32;;
64791;SDS011;51226;47.504;19.074;2023-03-31T07:03:57;9.15;;;5.15;;
64791;SDS011;51226;47.504;19.074;2023-03-31T07:07:00;9.90;;;6.07;;
64791;SDS011;51226;47.504;19.074;2023-03-31T07:10:03;9.77;;;7.57;;
64791;SDS011;51226;47.504;19.074;2023-03-31T07:13:06;9.88;;;6.95;;
64791;SDS011;51226;47.504;19.074;2023-03-31T07:16:09;14.65;;;9.30;;
64791;SDS011;51226;47.504;19.074;2023-03-31T07:19:15;9.93;;;8.75;;
64791;SDS011;51226;47.504;19.074;2023-03-31T07:22:18;10.95;;;9.15;;
64791;SDS011;51226;47.504;19.074;2023-03-31T07:25:21;9.35;;;8.45;;
64791;SDS011;51226;47.504;19.074;2023-03-31T07:28:24;12.20;;;9.07;;
64791;SDS011;51226;47.504;19.074;2023-03-31T07:31:27;10.95;;;8.73;;
64791;SDS011;51226;47.504;19.074;2023-03-31T07:34:30;10.80;;;7.82;;
64791;SDS011;51226;47.504;19.074;2023-03-31T07:37:36;9.73;;;7.60;;
64791;SDS011;51226;47.504;19.074;2023-03-31T07:40:40;8.50;;;7.60;;
64791;SDS011;51226;47.504;19.074;2023-03-31T07:43:47;11.02;;;6.55;;
64791;SDS011;51226;47.504;19.074;2023-03-31T07:46:50;8.90;;;5.85;;
64791;SDS011;51226;47.504;19.074;2023-03-31T07:49:53;9.05;;;5.65;;
64791;SDS011;51226;47.504;19.074;2023-03-31T07:52:58;7.80;;;5.60;;
64791;SDS011;51226;47.504;19.074;2023-03-31T07:56:01;8.90;;;5.10;;
64791;SDS011;51226;47.504;19.074;2023-03-31T07:59:05;6.97;;;4.82;;
64791;SDS011;51226;47.504;19.074;2023-03-31T08:02:12;6.45;;;5.50;;
64791;SDS011;51226;47.504;19.074;2023-03-31T08:05:17;7.47;;;5.65;;
64791;SDS011;51226;47.504;19.074;2023-03-31T08:08:21;9.57;;;5.82;;
64791;SDS011;51226;47.504;19.074;2023-03-31T08:11:24;9.13;;;6.07;;
64791;SDS011;51226;47.504;19.074;2023-03-31T08:14:27;8.23;;;6.12;;
64791;SDS011;51226;47.504;19.074;2023-03-31T08:17:42;7.95;;;6.28;;
64791;SDS011;51226;47.504;19.074;2023-03-31T08:20:45;6.70;;;5.60;;
64791;SDS011;51226;47.504;19.074;2023-03-31T08:23:54;5.95;;;5.32;;
64791;SDS011;51226;47.504;19.074;2023-03-31T08:26:57;8.48;;;6.22;;
64791;SDS011;51226;47.504;19.074;2023-03-31T08:30:00;7.35;;;5.35;;
64791;SDS011;51226;47.504;19.074;2023-03-31T08:33:06;6.20;;;5.60;;
64791;SDS011;51226;47.504;19.074;2023-03-31T08:36:09;5.78;;;5.07;;
64791;SDS011;51226;47.504;19.074;2023-03-31T08:39:12;6.53;;;5.80;;
64791;SDS011;51226;47.504;19.074;2023-03-31T08:42:16;6.37;;;5.10;;
64791;SDS011;51226;47.504;19.074;2023-03-31T08:45:26;7.35;;;4.62;;
64791;SDS011;51226;47.504;19.074;2023-03-31T08:48:38;8.70;;;5.20;;
64791;SDS011;51226;47.504;19.074;2023-03-31T08:51:51;10.40;;;4.80;;
64791;SDS011;51226;47.504;19.074;2023-03-31T08:54:58;7.32;;;5.30;;
64791;SDS011;51226;47.504;19.074;2023-03-31T08:58:08;5.93;;;4.72;;
64791;SDS011;51226;47.504;19.074;2023-03-31T09:08:14;6.73;;;4.97;;
64791;SDS011;51226;47.504;19.074;2023-03-31T09:18:34;5.72;;;4.53;;
64791;SDS011;51226;47.504;19.074;2023-03-31T09:21:40;6.90;;;4.60;;
64791;SDS011;51226;47.504;19.074;2023-03-31T09:25:01;4.97;;;3.90;;
64791;SDS011;51226;47.504;19.074;2023-03-31T09:28:05;5.85;;;4.47;;
64791;SDS011;51226;47.504;19.074;2023-03-31T09:31:34;5.07;;;4.57;;
64791;SDS011;51226;47.504;19.074;2023-03-31T09:34:40;5.45;;;4.03;;
64791;SDS011;51226;47.504;19.074;2023-03-31T09:37:44;5.30;;;4.53;;
64791;SDS011;51226;47.504;19.074;2023-03-31T09:40:47;6.90;;;5.07;;
64791;SDS011;51226;47.504;19.074;2023-03-31T09:43:50;4.80;;;4.10;;
64791;SDS011;51226;47.504;19.074;2023-03-31T09:46:53;6.35;;;4.45;;
64791;SDS011;51226;47.504;19.074;2023-03-31T09:49:59;6.62;;;4.07;;
64791;SDS011;51226;47.504;19.074;2023-03-31T09:53:02;5.90;;;4.30;;
64791;SDS011;51226;47.504;19.074;2023-03-31T09:56:07;4.32;;;3.70;;
64791;SDS011;51226;47.504;19.074;2023-03-31T09:59:32;4.95;;;4.50;;
64791;SDS011;51226;47.504;19.074;2023-03-31T10:02:48;4.25;;;3.90;;
64791;SDS011;51226;47.504;19.074;2023-03-31T10:05:55;5.55;;;3.72;;
64791;SDS011;51226;47.504;19.074;2023-03-31T10:09:02;4.62;;;2.83;;
64791;SDS011;51226;47.504;19.074;2023-03-31T10:12:08;4.87;;;3.10;;
64791;SDS011;51226;47.504;19.074;2023-03-31T10:15:21;3.80;;;2.72;;
64791;SDS011;51226;47.504;19.074;2023-03-31T10:18:39;4.87;;;2.80;;
64791;SDS011;51226;47.504;19.074;2023-03-31T10:21:44;3.90;;;3.12;;
64791;SDS011;51226;47.504;19.074;2023-03-31T10:24:50;4.15;;;2.80;;
64791;SDS011;51226;47.504;19.074;2023-03-31T10:27:54;3.10;;;2.78;;
64791;SDS011;51226;47.504;19.074;2023-03-31T10:30:58;5.68;;;3.40;;
64791;SDS011;51226;47.504;19.074;2023-03-31T10:34:07;4.28;;;3.50;;
64791;SDS011;51226;47.504;19.074;2023-03-31T10:37:16;4.30;;;3.10;;
64791;SDS011;51226;47.504;19.074;2023-03-31T10:40:28;3.72;;;3.10;;
64791;SDS011;51226;47.504;19.074;2023-03-31T10:43:36;4.53;;;3.37;;
64791;SDS011;51226;47.504;19.074;2023-03-31T10:46:49;2.55;;;2.35;;
64791;SDS011;51226;47.504;19.074;2023-03-31T10:49:57;2.92;;;2.65;;
64791;SDS011;51226;47.504;19.074;2023-03-31T10:53:05;4.50;;;2.90;;
64791;SDS011;51226;47.504;19.074;2023-03-31T11:23:42;5.68;;;3.55;;
64791;SDS011;51226;47.504;19.074;2023-03-31T11:34:09;3.90;;;3.58;;
64791;SDS011;51226;47.504;19.074;2023-03-31T11:40:36;3.92;;;3.42;;
64791;SDS011;51226;47.504;19.074;2023-03-31T11:43:52;5.82;;;3.47;;
64791;SDS011;51226;47.504;19.074;2023-03-31T11:47:03;5.00;;;3.35;;
64791;SDS011;51226;47.504;19.074;2023-03-31T11:50:18;5.13;;;3.50;;
64791;SDS011;51226;47.504;19.074;2023-03-31T11:53:26;4.37;;;3.55;;
64791;SDS011;51226;47.504;19.074;2023-03-31T11:56:35;5.55;;;3.08;;
64791;SDS011;51226;47.504;19.074;2023-03-31T11:59:41;3.78;;;3.10;;
64791;SDS011;51226;47.504;19.074;2023-03-31T12:02:53;3.58;;;2.70;;
64791;SDS011;51226;47.504;19.074;2023-03-31T12:06:12;5.30;;;3.08;;
64791;SDS011;51226;47.504;19.074;2023-03-31T12:09:22;3.75;;;3.17;;
64791;SDS011;51226;47.504;19.074;2023-03-31T12:12:36;3.75;;;3.30;;
64791;SDS011;51226;47.504;19.074;2023-03-31T12:15:50;3.70;;;3.40;;
64791;SDS011;51226;47.504;19.074;2023-03-31T12:22:44;3.85;;;3.12;;
64791;SDS011;51226;47.504;19.074;2023-03-31T12:28:59;4.15;;;3.50;;
64791;SDS011;51226;47.504;19.074;2023-03-31T12:32:13;5.40;;;3.35;;
64791;SDS011;51226;47.504;19.074;2023-03-31T12:35:25;4.35;;;2.92;;
64791;SDS011;51226;47.504;19.074;2023-03-31T12:45:35;3.33;;;3.00;;
64791;SDS011;51226;47.504;19.074;2023-03-31T12:52:07;5.00;;;3.58;;
64791;SDS011;51226;47.504;19.074;2023-03-31T13:01:28;5.95;;;3.37;;
64791;SDS011;51226;47.504;19.074;2023-03-31T13:07:35;4.60;;;3.45;;
64791;SDS011;51226;47.504;19.074;2023-03-31T13:10:57;7.32;;;4.45;;
64791;SDS011;51226;47.504;19.074;2023-03-31T13:14:20;6.78;;;4.37;;
64791;SDS011;51226;47.504;19.074;2023-03-31T13:20:40;5.07;;;3.50;;
64791;SDS011;51226;47.504;19.074;2023-03-31T13:23:44;4.72;;;4.32;;
64791;SDS011;51226;47.504;19.074;2023-03-31T13:26:48;6.90;;;3.90;;
64791;SDS011;51226;47.504;19.074;2023-03-31T13:29:53;5.22;;;3.70;;
64791;SDS011;51226;47.504;19.074;2023-03-31T13:53:52;4.87;;;3.55;;
64791;SDS011;51226;47.504;19.074;2023-03-31T14:07:42;4.50;;;2.75;;
64791;SDS011;51226;47.504;19.074;2023-03-31T14:10:49;7.15;;;2.70;;
64791;SDS011;51226;47.504;19.074;2023-03-31T14:17:02;3.47;;;2.58;;
64791;SDS011;51226;47.504;19.074;2023-03-31T14:20:24;4.72;;;3.15;;
64791;SDS011;51226;47.504;19.074;2023-03-31T14:27:07;4.62;;;3.17;;
64791;SDS011;51226;47.504;19.074;2023-03-31T14:30:14;3.83;;;2.92;;
64791;SDS011;51226;47.504;19.074;2023-03-31T14:37:12;3.42;;;3.12;;
64791;SDS011;51226;47.504;19.074;2023-03-31T14:40:19;5.50;;;2.97;;
64791;SDS011;51226;47.504;19.074;2023-03-31T14:43:24;3.87;;;2.70;;
64791;SDS011;51226;47.504;19.074;2023-03-31T14:46:30;4.82;;;3.05;;
64791;SDS011;51226;47.504;19.074;2023-03-31T14:49:35;4.15;;;2.90;;
64791;SDS011;51226;47.504;19.074;2023-03-31T14:52:40;5.40;;;2.78;;
64791;SDS011;51226;47.504;19.074;2023-03-31T14:55:49;4.18;;;2.65;;
64791;SDS011;51226;47.504;19.074;2023-03-31T14:59:01;4.90;;;3.42;;
64791;SDS011;51226;47.504;19.074;2023-03-31T15:02:06;3.97;;;3.00;;
64791;SDS011;51226;47.504;19.074;2023-03-31T15:08:38;4.82;;;3.30;;
64791;SDS011;51226;47.504;19.074;2023-03-31T15:11:42;5.68;;;3.00;;
64791;SDS011;51226;47.504;19.074;2023-03-31T15:14:47;3.85;;;3.12;;
64791;SDS011;51226;47.504;19.074;2023-03-31T15:17:53;6.07;;;3.75;;
64791;SDS011;51226;47.504;19.074;2023-03-31T15:23:59;7.50;;;3.90;;
64791;SDS011;51226;47.504;19.074;2023-03-31T15:27:02;4.03;;;3.30;;
64791;SDS011;51226;47.504;19.074;2023-03-31T15:30:22;5.07;;;2.72;;
64791;SDS011;51226;47.504;19.074;2023-03-31T15:33:32;4.12;;;2.60;;
64791;SDS011;51226;47.504;19.074;2023-03-31T15:36:38;4.68;;;3.60;;
64791;SDS011;51226;47.504;19.074;2023-03-31T15:42:49;7.35;;;3.75;;
64791;SDS011;51226;47.504;19.074;2023-03-31T15:46:25;5.72;;;3.60;;
64791;SDS011;51226;47.504;19.074;2023-03-31T15:49:54;4.30;;;2.72;;
64791;SDS011;51226;47.504;19.074;2023-03-31T15:53:00;4.50;;;2.90;;
64791;SDS011;51226;47.504;19.074;2023-03-31T15:56:05;4.15;;;2.60;;
64791;SDS011;51226;47.504;19.074;2023-03-31T15:59:22;5.68;;;3.00;;
64791;SDS011;51226;47.504;19.074;2023-03-31T16:02:37;5.03;;;3.05;;
64791;SDS011;51226;47.504;19.074;2023-03-31T16:09:04;3.10;;;2.67;;
64791;SDS011;51226;47.504;19.074;2023-03-31T16:12:14;3.35;;;2.72;;
64791;SDS011;51226;47.504;19.074;2023-03-31T16:15:34;3.10;;;2.53;;
64791;SDS011;51226;47.504;19.074;2023-03-31T16:18:44;4.70;;;2.92;;
64791;SDS011;51226;47.504;19.074;2023-03-31T16:21:52;5.25;;;3.55;;
64791;SDS011;51226;47.504;19.074;2023-03-31T16:25:01;4.78;;;3.10;;
64791;SDS011;51226;47.504;19.074;2023-03-31T16:28:18;4.82;;;2.95;;
64791;SDS011;51226;47.504;19.074;2023-03-31T16:34:52;5.22;;;3.12;;
64791;SDS011;51226;47.504;19.074;2023-03-31T16:37:59;6.25;;;3.17;;
64791;SDS011;51226;47.504;19.074;2023-03-31T16:41:04;3.47;;;2.55;;
64791;SDS011;51226;47.504;19.074;2023-03-31T16:44:08;3.62;;;2.97;;
64791;SDS011;51226;47.504;19.074;2023-03-31T16:47:12;2.42;;;2.22;;
64791;SDS011;51226;47.504;19.074;2023-03-31T16:50:29;5.18;;;2.87;;
64791;SDS011;51226;47.504;19.074;2023-03-31T16:53:33;3.72;;;2.78;;
64791;SDS011;51226;47.504;19.074;2023-03-31T16:56:37;4.35;;;2.50;;
64791;SDS011;51226;47.504;19.074;2023-03-31T16:59:40;3.35;;;2.47;;
64791;SDS011;51226;47.504;19.074;2023-03-31T17:02:44;3.10;;;2.80;;
64791;SDS011;51226;47.504;19.074;2023-03-31T17:05:48;3.20;;;2.45;;
64791;SDS011;51226;47.504;19.074;2023-03-31T17:08:54;2.78;;;2.20;;
64791;SDS011;51226;47.504;19.074;2023-03-31T17:11:57;4.50;;;3.67;;
64791;SDS011;51226;47.504;19.074;2023-03-31T17:15:00;5.45;;;4.75;;
64791;SDS011;51226;47.504;19.074;2023-03-31T17:18:04;3.00;;;2.72;;
64791;SDS011;51226;47.504;19.074;2023-03-31T17:21:09;4.18;;;2.95;;
64791;SDS011;51226;47.504;19.074;2023-03-31T17:24:15;5.05;;;2.90;;
64791;SDS011;51226;47.504;19.074;2023-03-31T17:27:18;3.97;;;2.90;;
64791;SDS011;51226;47.504;19.074;2023-03-31T17:30:21;5.62;;;3.33;;
64791;SDS011;51226;47.504;19.074;2023-03-31T17:33:25;8.93;;;3.22;;
64791;SDS011;51226;47.504;19.074;2023-03-31T17:36:29;5.00;;;2.92;;
64791;SDS011;51226;47.504;19.074;2023-03-31T17:39:32;4.05;;;3.00;;
64791;SDS011;51226;47.504;19.074;2023-03-31T17:42:35;5.03;;;3.17;;
64791;SDS011;51226;47.504;19.074;2023-03-31T17:45:38;5.95;;;3.50;;
64791;SDS011;51226;47.504;19.074;2023-03-31T17:48:41;6.28;;;3.58;;
64791;SDS011;51226;47.504;19.074;2023-03-31T17:51:44;5.20;;;3.05;;
64791;SDS011;51226;47.504;19.074;2023-03-31T17:54:47;5.40;;;3.50;;
64791;SDS011;51226;47.504;19.074;2023-03-31T17:57:52;7.85;;;3.40;;
64791;SDS011;51226;47.504;19.074;2023-03-31T18:00:55;4.90;;;3.47;;
64791;SDS011;51226;47.504;19.074;2023-03-31T18:07:01;5.20;;;2.90;;
64791;SDS011;51226;47.504;19.074;2023-03-31T18:10:04;4.35;;;3.65;;
64791;SDS011;51226;47.504;19.074;2023-03-31T18:13:08;5.40;;;3.05;;
64791;SDS011;51226;47.504;19.074;2023-03-31T18:16:11;4.82;;;3.25;;
64791;SDS011;51226;47.504;19.074;2023-03-31T18:19:15;5.82;;;3.37;;
64791;SDS011;51226;47.504;19.074;2023-03-31T18:22:19;4.93;;;3.70;;
64791;SDS011;51226;47.504;19.074;2023-03-31T18:25:22;8.02;;;3.47;;
64791;SDS011;51226;47.504;19.074;2023-03-31T18:28:25;7.03;;;3.55;;
64791;SDS011;51226;47.504;19.074;2023-03-31T18:34:31;4.22;;;3.80;;
64791;SDS011;51226;47.504;19.074;2023-03-31T18:37:35;4.25;;;3.40;;
64791;SDS011;51226;47.504;19.074;2023-03-31T18:40:38;8.43;;;3.92;;
64791;SDS011;51226;47.504;19.074;2023-03-31T18:43:41;7.22;;;3.87;;
64791;SDS011;51226;47.504;19.074;2023-03-31T18:46:44;5.62;;;3.65;;
64791;SDS011;51226;47.504;19.074;2023-03-31T18:52:55;5.40;;;4.20;;
64791;SDS011;51226;47.504;19.074;2023-03-31T18:55:58;8.82;;;5.32;;
64791;SDS011;51226;47.504;19.074;2023-03-31T18:59:01;8.18;;;5.15;;
64791;SDS011;51226;47.504;19.074;2023-03-31T19:02:06;6.37;;;4.57;;
64791;SDS011;51226;47.504;19.074;2023-03-31T19:08:12;7.57;;;4.28;;
64791;SDS011;51226;47.504;19.074;2023-03-31T19:14:18;5.03;;;4.07;;
64791;SDS011;51226;47.504;19.074;2023-03-31T19:17:21;7.15;;;3.87;;
64791;SDS011;51226;47.504;19.074;2023-03-31T19:20:24;7.22;;;3.97;;
64791;SDS011;51226;47.504;19.074;2023-03-31T19:26:31;5.35;;;4.18;;
64791;SDS011;51226;47.504;19.074;2023-03-31T19:29:34;6.12;;;4.05;;
64791;SDS011;51226;47.504;19.074;2023-03-31T19:32:37;7.65;;;4.12;;
64791;SDS011;51226;47.504;19.074;2023-03-31T19:35:41;6.40;;;3.25;;
64791;SDS011;51226;47.504;19.074;2023-03-31T19:38:46;3.90;;;2.78;;
64791;SDS011;51226;47.504;19.074;2023-03-31T19:41:49;3.50;;;2.47;;
64791;SDS011;51226;47.504;19.074;2023-03-31T19:44:52;3.55;;;2.00;;
64791;SDS011;51226;47.504;19.074;2023-03-31T19:47:55;3.05;;;1.50;;
64791;SDS011;51226;47.504;19.074;2023-03-31T19:54:02;1.62;;;1.48;;
64791;SDS011;51226;47.504;19.074;2023-03-31T19:57:05;2.35;;;1.90;;
64791;SDS011;51226;47.504;19.074;2023-03-31T20:00:10;8.05;;;6.07;;
64791;SDS011;51226;47.504;19.074;2023-03-31T20:03:14;3.42;;;2.15;;
64791;SDS011;51226;47.504;19.074;2023-03-31T20:06:21;1.42;;;1.30;;
64791;SDS011;51226;47.504;19.074;2023-03-31T20:09:25;2.35;;;1.35;;
64791;SDS011;51226;47.504;19.074;2023-03-31T20:12:30;1.62;;;1.30;;
64791;SDS011;51226;47.504;19.074;2023-03-31T20:15:33;1.62;;;1.20;;
64791;SDS011;51226;47.504;19.074;2023-03-31T20:18:40;1.98;;;1.20;;
64791;SDS011;51226;47.504;19.074;2023-03-31T20:21:50;1.75;;;1.30;;
64791;SDS011;51226;47.504;19.074;2023-03-31T20:24:59;2.58;;;1.25;;
64791;SDS011;51226;47.504;19.074;2023-03-31T20:28:21;3.45;;;1.12;;
64791;SDS011;51226;47.504;19.074;2023-03-31T20:31:25;1.60;;;1.30;;
64791;SDS011;51226;47.504;19.074;2023-03-31T20:34:30;1.75;;;1.05;;
64791;SDS011;51226;47.504;19.074;2023-03-31T20:37:34;1.20;;;1.10;;
64791;SDS011;51226;47.504;19.074;2023-03-31T20:40:37;2.80;;;1.20;;
64791;SDS011;51226;47.504;19.074;2023-03-31T20:43:40;2.80;;;1.73;;
64791;SDS011;51226;47.504;19.074;2023-03-31T20:46:43;3.40;;;1.67;;
64791;SDS011;51226;47.504;19.074;2023-03-31T20:49:47;2.33;;;1.52;;
64791;SDS011;51226;47.504;19.074;2023-03-31T20:52:50;1.42;;;1.10;;
64791;SDS011;51226;47.504;19.074;2023-03-31T20:55:53;1.33;;;0.62;;
64791;SDS011;51226;47.504;19.074;2023-03-31T20:58:57;1.17;;;1.08;;
64791;SDS011;51226;47.504;19.074;2023-03-31T21:02:01;1.30;;;0.70;;
64791;SDS011;51226;47.504;19.074;2023-03-31T21:05:04;2.25;;;1.20;;
64791;SDS011;51226;47.504;19.074;2023-03-31T21:08:08;3.42;;;1.23;;
64791;SDS011;51226;47.504;19.074;2023-03-31T21:11:12;1.30;;;1.08;;
64791;SDS011;51226;47.504;19.074;2023-03-31T21:14:15;1.20;;;1.10;;
64791;SDS011;51226;47.504;19.074;2023-03-31T21:17:18;2.12;;;1.48;;
64791;SDS011;51226;47.504;19.074;2023-03-31T21:20:21;2.75;;;1.42;;
64791;SDS011;51226;47.504;19.074;2023-03-31T21:23:25;3.55;;;1.37;;
64791;SDS011;51226;47.504;19.074;2023-03-31T21:26:29;1.55;;;1.37;;
64791;SDS011;51226;47.504;19.074;2023-03-31T21:29:32;4.12;;;2.40;;
64791;SDS011;51226;47.504;19.074;2023-03-31T21:32:35;4.18;;;1.80;;
64791;SDS011;51226;47.504;19.074;2023-03-31T21:35:38;4.25;;;1.52;;
64791;SDS011;51226;47.504;19.074;2023-03-31T21:38:41;2.62;;;1.83;;
64791;SDS011;51226;47.504;19.074;2023-03-31T21:41:44;2.95;;;1.70;;
64791;SDS011;51226;47.504;19.074;2023-03-31T21:47:52;3.05;;;1.80;;
64791;SDS011;51226;47.504;19.074;2023-03-31T21:50:55;2.50;;;2.15;;
64791;SDS011;51226;47.504;19.074;2023-03-31T21:54:02;2.53;;;1.45;;
64791;SDS011;51226;47.504;19.074;2023-03-31T21:57:05;3.17;;;1.60;;
64791;SDS011;51226;47.504;19.074;2023-03-31T22:00:10;2.08;;;1.50;;
64791;SDS011;51226;47.504;19.074;2023-03-31T22:03:15;6.37;;;1.77;;
64791;SDS011;51226;47.504;19.074;2023-03-31T22:06:29;2.70;;;1.55;;
64791;SDS011;51226;47.504;19.074;2023-03-31T22:09:35;2.17;;;1.30;;
64791;SDS011;51226;47.504;19.074;2023-03-31T22:12:38;1.40;;;1.30;;
64791;SDS011;51226;47.504;19.074;2023-03-31T22:15:41;1.98;;;1.60;;
64791;SDS011;51226;47.504;19.074;2023-03-31T22:18:44;1.55;;;1.40;;
64791;SDS011;51226;47.504;19.074;2023-03-31T22:21:48;2.15;;;1.50;;
64791;SDS011;51226;47.504;19.074;2023-03-31T22:27:54;2.10;;;1.40;;
64791;SDS011;51226;47.504;19.074;2023-03-31T22:30:57;1.70;;;1.15;;
64791;SDS011;51226;47.504;19.074;2023-03-31T22:34:00;1.62;;;1.25;;